sensor_id;sensor_type;location;lat;lon;timestamp;P1;durP1;ratioP1;P2;durP2;ratioP2
23676;SDS011;31493;49.058;12.190;2023-12-20T00:01:36;15.43;;;10.40;;
23676;SDS011;31493;49.058;12.190;2023-12-20T00:04:03;13.50;;;9.23;;
23676;SDS011;31493;49.058;12.190;2023-12-20T00:06:30;14.48;;;10.25;;
23676;SDS011;31493;49.058;12.190;2023-12-20T00:08:57;14.98;;;9.75;;
23676;SDS011;31493;49.058;12.190;2023-12-20T00:11:26;15.52;;;10.63;;
23676;SDS011;31493;49.058;12.190;2023-12-20T00:13:52;13.80;;;10.25;;
23676;SDS011;31493;49.058;12.190;2023-12-20T00:16:19;16.83;;;11.15;;
23676;SDS011;31493;49.058;12.190;2023-12-20T00:18:46;14.77;;;10.35;;
23676;SDS011;31493;49.058;12.190;2023-12-20T00:21:13;14.68;;;9.95;;
23676;SDS011;31493;49.058;12.190;2023-12-20T00:23:40;16.20;;;10.77;;
23676;SDS011;31493;49.058;12.190;2023-12-20T00:26:07;16.90;;;10.52;;
23676;SDS011;31493;49.058;12.190;2023-12-20T00:28:36;15.13;;;9.98;;
23676;SDS011;31493;49.058;12.190;2023-12-20T00:31:03;12.13;;;9.45;;
23676;SDS011;31493;49.058;12.190;2023-12-20T00:33:30;15.18;;;9.50;;
23676;SDS011;31493;49.058;12.190;2023-12-20T00:35:57;14.75;;;9.52;;
23676;SDS011;31493;49.058;12.190;2023-12-20T00:38:24;13.88;;;9.23;;
23676;SDS011;31493;49.058;12.190;2023-12-20T00:40:51;17.25;;;9.68;;
23676;SDS011;31493;49.058;12.190;2023-12-20T00:43:18;13.18;;;9.27;;
23676;SDS011;31493;49.058;12.190;2023-12-20T00:45:46;13.68;;;9.13;;
23676;SDS011;31493;49.058;12.190;2023-12-20T00:48:13;18.65;;;8.77;;
23676;SDS011;31493;49.058;12.190;2023-12-20T00:50:40;13.13;;;9.60;;
23676;SDS011;31493;49.058;12.190;2023-12-20T00:53:07;14.05;;;9.68;;
23676;SDS011;31493;49.058;12.190;2023-12-20T00:55:34;12.98;;;9.23;;
23676;SDS011;31493;49.058;12.190;2023-12-20T00:58:01;13.75;;;8.93;;
23676;SDS011;31493;49.058;12.190;2023-12-20T01:00:28;14.68;;;9.55;;
23676;SDS011;31493;49.058;12.190;2023-12-20T01:02:57;13.85;;;8.55;;
23676;SDS011;31493;49.058;12.190;2023-12-20T01:05:24;14.85;;;10.23;;
23676;SDS011;31493;49.058;12.190;2023-12-20T01:07:51;12.48;;;8.48;;
23676;SDS011;31493;49.058;12.190;2023-12-20T01:10:18;14.00;;;9.38;;
23676;SDS011;31493;49.058;12.190;2023-12-20T01:12:45;14.13;;;9.75;;
23676;SDS011;31493;49.058;12.190;2023-12-20T01:15:12;14.77;;;10.18;;
23676;SDS011;31493;49.058;12.190;2023-12-20T01:17:39;14.70;;;9.20;;
23676;SDS011;31493;49.058;12.190;2023-12-20T01:20:07;13.35;;;9.45;;
23676;SDS011;31493;49.058;12.190;2023-12-20T01:22:35;14.60;;;9.27;;
23676;SDS011;31493;49.058;12.190;2023-12-20T01:25:02;15.98;;;10.07;;
23676;SDS011;31493;49.058;12.190;2023-12-20T01:27:29;14.70;;;9.00;;
23676;SDS011;31493;49.058;12.190;2023-12-20T01:29:57;14.00;;;9.68;;
23676;SDS011;31493;49.058;12.190;2023-12-20T01:32:24;13.38;;;9.00;;
23676;SDS011;31493;49.058;12.190;2023-12-20T01:34:51;13.07;;;8.88;;
23676;SDS011;31493;49.058;12.190;2023-12-20T01:37:19;14.23;;;9.48;;
23676;SDS011;31493;49.058;12.190;2023-12-20T01:39:49;13.48;;;9.00;;
23676;SDS011;31493;49.058;12.190;2023-12-20T01:42:16;12.88;;;8.38;;
23676;SDS011;31493;49.058;12.190;2023-12-20T01:44:43;19.35;;;9.20;;
23676;SDS011;31493;49.058;12.190;2023-12-20T01:47:10;15.93;;;10.15;;
23676;SDS011;31493;49.058;12.190;2023-12-20T01:49:37;15.20;;;9.70;;
23676;SDS011;31493;49.058;12.190;2023-12-20T01:52:04;15.07;;;10.48;;
23676;SDS011;31493;49.058;12.190;2023-12-20T01:54:34;12.55;;;8.90;;
23676;SDS011;31493;49.058;12.190;2023-12-20T01:57:01;16.20;;;10.48;;
23676;SDS011;31493;49.058;12.190;2023-12-20T01:59:30;14.27;;;10.35;;
23676;SDS011;31493;49.058;12.190;2023-12-20T02:01:57;12.93;;;9.30;;
23676;SDS011;31493;49.058;12.190;2023-12-20T02:04:25;13.38;;;10.43;;
23676;SDS011;31493;49.058;12.190;2023-12-20T02:06:52;16.27;;;10.25;;
23676;SDS011;31493;49.058;12.190;2023-12-20T02:09:19;16.40;;;9.90;;
23676;SDS011;31493;49.058;12.190;2023-12-20T02:11:49;16.20;;;10.70;;
23676;SDS011;31493;49.058;12.190;2023-12-20T02:14:16;16.38;;;10.30;;
23676;SDS011;31493;49.058;12.190;2023-12-20T02:16:43;15.05;;;9.57;;
23676;SDS011;31493;49.058;12.190;2023-12-20T02:19:12;15.73;;;9.70;;
23676;SDS011;31493;49.058;12.190;2023-12-20T02:21:42;15.45;;;9.93;;
23676;SDS011;31493;49.058;12.190;2023-12-20T02:24:09;10.82;;;7.43;;
23676;SDS011;31493;49.058;12.190;2023-12-20T02:26:36;13.77;;;9.70;;
23676;SDS011;31493;49.058;12.190;2023-12-20T02:29:03;16.20;;;9.27;;
23676;SDS011;31493;49.058;12.190;2023-12-20T02:31:30;16.08;;;10.50;;
23676;SDS011;31493;49.058;12.190;2023-12-20T02:33:58;16.65;;;8.65;;
23676;SDS011;31493;49.058;12.190;2023-12-20T02:36:25;13.63;;;9.32;;
23676;SDS011;31493;49.058;12.190;2023-12-20T02:38:53;15.43;;;9.82;;
23676;SDS011;31493;49.058;12.190;2023-12-20T02:41:20;13.68;;;9.07;;
23676;SDS011;31493;49.058;12.190;2023-12-20T02:43:47;16.00;;;9.60;;
23676;SDS011;31493;49.058;12.190;2023-12-20T02:46:14;12.02;;;8.95;;
23676;SDS011;31493;49.058;12.190;2023-12-20T02:48:42;13.23;;;8.57;;
23676;SDS011;31493;49.058;12.190;2023-12-20T02:51:09;15.55;;;9.95;;
23676;SDS011;31493;49.058;12.190;2023-12-20T02:53:36;11.68;;;8.27;;
23676;SDS011;31493;49.058;12.190;2023-12-20T02:56:05;14.65;;;9.57;;
23676;SDS011;31493;49.058;12.190;2023-12-20T02:58:32;15.18;;;9.35;;
23676;SDS011;31493;49.058;12.190;2023-12-20T03:00:59;14.45;;;10.07;;
23676;SDS011;31493;49.058;12.190;2023-12-20T03:03:26;14.05;;;9.80;;
23676;SDS011;31493;49.058;12.190;2023-12-20T03:05:53;13.50;;;9.85;;
23676;SDS011;31493;49.058;12.190;2023-12-20T03:08:20;19.65;;;10.73;;
23676;SDS011;31493;49.058;12.190;2023-12-20T03:10:47;15.32;;;10.18;;
23676;SDS011;31493;49.058;12.190;2023-12-20T03:13:16;14.15;;;9.50;;
23676;SDS011;31493;49.058;12.190;2023-12-20T03:15:42;13.70;;;8.65;;
23676;SDS011;31493;49.058;12.190;2023-12-20T03:18:10;14.82;;;9.25;;
23676;SDS011;31493;49.058;12.190;2023-12-20T03:20:37;12.43;;;8.23;;
23676;SDS011;31493;49.058;12.190;2023-12-20T03:23:04;12.85;;;8.13;;
23676;SDS011;31493;49.058;12.190;2023-12-20T03:25:31;11.50;;;8.48;;
23676;SDS011;31493;49.058;12.190;2023-12-20T03:27:58;9.82;;;7.03;;
23676;SDS011;31493;49.058;12.190;2023-12-20T03:30:27;11.45;;;8.02;;
23676;SDS011;31493;49.058;12.190;2023-12-20T03:32:54;13.30;;;8.20;;
23676;SDS011;31493;49.058;12.190;2023-12-20T03:35:21;15.13;;;8.30;;
23676;SDS011;31493;49.058;12.190;2023-12-20T03:37:48;10.88;;;7.43;;
23676;SDS011;31493;49.058;12.190;2023-12-20T03:40:15;12.60;;;8.23;;
23676;SDS011;31493;49.058;12.190;2023-12-20T03:42:42;11.68;;;7.72;;
23676;SDS011;31493;49.058;12.190;2023-12-20T03:45:09;12.50;;;8.02;;
23676;SDS011;31493;49.058;12.190;2023-12-20T03:47:37;10.73;;;7.97;;
23676;SDS011;31493;49.058;12.190;2023-12-20T03:50:05;10.07;;;7.95;;
23676;SDS011;31493;49.058;12.190;2023-12-20T03:52:32;12.90;;;8.20;;
23676;SDS011;31493;49.058;12.190;2023-12-20T03:54:59;12.43;;;8.18;;
23676;SDS011;31493;49.058;12.190;2023-12-20T03:57:26;10.00;;;7.05;;
23676;SDS011;31493;49.058;12.190;2023-12-20T03:59:53;11.65;;;8.48;;
23676;SDS011;31493;49.058;12.190;2023-12-20T04:02:20;11.30;;;7.65;;
23676;SDS011;31493;49.058;12.190;2023-12-20T04:04:48;12.10;;;7.65;;
23676;SDS011;31493;49.058;12.190;2023-12-20T04:07:15;10.23;;;6.50;;
23676;SDS011;31493;49.058;12.190;2023-12-20T04:09:42;9.10;;;6.60;;
23676;SDS011;31493;49.058;12.190;2023-12-20T04:12:09;13.73;;;7.63;;
23676;SDS011;31493;49.058;12.190;2023-12-20T04:14:36;10.85;;;6.90;;
23676;SDS011;31493;49.058;12.190;2023-12-20T04:17:03;7.95;;;6.35;;
23676;SDS011;31493;49.058;12.190;2023-12-20T04:19:30;10.70;;;6.93;;
23676;SDS011;31493;49.058;12.190;2023-12-20T04:21:58;9.18;;;6.75;;
23676;SDS011;31493;49.058;12.190;2023-12-20T04:24:25;7.20;;;5.38;;
23676;SDS011;31493;49.058;12.190;2023-12-20T04:26:52;9.13;;;6.32;;
23676;SDS011;31493;49.058;12.190;2023-12-20T04:29:19;10.57;;;6.88;;
23676;SDS011;31493;49.058;12.190;2023-12-20T04:31:47;9.70;;;6.75;;
23676;SDS011;31493;49.058;12.190;2023-12-20T04:34:17;9.48;;;6.82;;
23676;SDS011;31493;49.058;12.190;2023-12-20T04:36:44;10.65;;;6.75;;
23676;SDS011;31493;49.058;12.190;2023-12-20T04:39:13;8.88;;;5.88;;
23676;SDS011;31493;49.058;12.190;2023-12-20T04:41:41;8.73;;;6.35;;
23676;SDS011;31493;49.058;12.190;2023-12-20T04:44:08;11.73;;;7.00;;
23676;SDS011;31493;49.058;12.190;2023-12-20T04:46:35;8.35;;;6.55;;
23676;SDS011;31493;49.058;12.190;2023-12-20T04:49:02;10.88;;;7.10;;
23676;SDS011;31493;49.058;12.190;2023-12-20T04:51:29;8.52;;;6.40;;
23676;SDS011;31493;49.058;12.190;2023-12-20T04:53:56;9.32;;;6.38;;
23676;SDS011;31493;49.058;12.190;2023-12-20T04:56:24;9.20;;;6.60;;
23676;SDS011;31493;49.058;12.190;2023-12-20T04:58:51;8.57;;;6.63;;
23676;SDS011;31493;49.058;12.190;2023-12-20T05:01:18;11.55;;;6.90;;
23676;SDS011;31493;49.058;12.190;2023-12-20T05:03:46;13.23;;;7.20;;
23676;SDS011;31493;49.058;12.190;2023-12-20T05:06:13;8.02;;;6.43;;
23676;SDS011;31493;49.058;12.190;2023-12-20T05:08:40;10.45;;;6.78;;
23676;SDS011;31493;49.058;12.190;2023-12-20T05:11:07;10.25;;;7.00;;
23676;SDS011;31493;49.058;12.190;2023-12-20T05:13:36;9.43;;;7.25;;
23676;SDS011;31493;49.058;12.190;2023-12-20T05:16:03;10.57;;;7.30;;
23676;SDS011;31493;49.058;12.190;2023-12-20T05:18:31;9.13;;;6.68;;
23676;SDS011;31493;49.058;12.190;2023-12-20T05:20:58;8.95;;;6.72;;
23676;SDS011;31493;49.058;12.190;2023-12-20T05:23:25;11.40;;;7.47;;
23676;SDS011;31493;49.058;12.190;2023-12-20T05:25:52;10.27;;;6.68;;
23676;SDS011;31493;49.058;12.190;2023-12-20T05:28:19;10.52;;;7.25;;
23676;SDS011;31493;49.058;12.190;2023-12-20T05:30:47;11.98;;;6.68;;
23676;SDS011;31493;49.058;12.190;2023-12-20T05:33:14;11.05;;;6.63;;
23676;SDS011;31493;49.058;12.190;2023-12-20T05:35:41;10.48;;;7.22;;
23676;SDS011;31493;49.058;12.190;2023-12-20T05:38:08;9.15;;;6.85;;
23676;SDS011;31493;49.058;12.190;2023-12-20T05:40:35;10.45;;;7.13;;
23676;SDS011;31493;49.058;12.190;2023-12-20T05:43:02;11.07;;;7.20;;
23676;SDS011;31493;49.058;12.190;2023-12-20T05:45:30;10.10;;;6.82;;
23676;SDS011;31493;49.058;12.190;2023-12-20T05:47:58;10.80;;;6.40;;
23676;SDS011;31493;49.058;12.190;2023-12-20T05:50:25;7.63;;;6.10;;
23676;SDS011;31493;49.058;12.190;2023-12-20T05:52:52;8.18;;;5.63;;
23676;SDS011;31493;49.058;12.190;2023-12-20T05:55:19;9.48;;;5.47;;
23676;SDS011;31493;49.058;12.190;2023-12-20T05:57:46;9.27;;;5.88;;
23676;SDS011;31493;49.058;12.190;2023-12-20T06:00:14;7.97;;;5.75;;
23676;SDS011;31493;49.058;12.190;2023-12-20T06:02:42;6.13;;;4.13;;
23676;SDS011;31493;49.058;12.190;2023-12-20T06:05:11;7.10;;;5.15;;
23676;SDS011;31493;49.058;12.190;2023-12-20T06:07:39;7.65;;;5.45;;
23676;SDS011;31493;49.058;12.190;2023-12-20T06:10:06;6.15;;;4.80;;
23676;SDS011;31493;49.058;12.190;2023-12-20T06:12:34;6.10;;;4.90;;
23676;SDS011;31493;49.058;12.190;2023-12-20T06:15:02;7.80;;;4.70;;
23676;SDS011;31493;49.058;12.190;2023-12-20T06:17:29;6.00;;;4.20;;
23676;SDS011;31493;49.058;12.190;2023-12-20T06:19:57;6.47;;;3.88;;
23676;SDS011;31493;49.058;12.190;2023-12-20T06:22:25;4.60;;;3.70;;
23676;SDS011;31493;49.058;12.190;2023-12-20T06:24:52;9.02;;;3.53;;
23676;SDS011;31493;49.058;12.190;2023-12-20T06:27:19;4.05;;;2.95;;
23676;SDS011;31493;49.058;12.190;2023-12-20T06:29:46;3.55;;;2.65;;
23676;SDS011;31493;49.058;12.190;2023-12-20T06:32:13;3.92;;;2.70;;
23676;SDS011;31493;49.058;12.190;2023-12-20T06:34:40;2.92;;;2.47;;
23676;SDS011;31493;49.058;12.190;2023-12-20T06:37:07;3.22;;;2.42;;
23676;SDS011;31493;49.058;12.190;2023-12-20T06:39:35;3.15;;;2.38;;
23676;SDS011;31493;49.058;12.190;2023-12-20T06:42:03;2.97;;;2.20;;
23676;SDS011;31493;49.058;12.190;2023-12-20T06:44:30;4.22;;;2.60;;
23676;SDS011;31493;49.058;12.190;2023-12-20T06:46:57;4.45;;;2.00;;
23676;SDS011;31493;49.058;12.190;2023-12-20T06:49:24;2.10;;;1.70;;
23676;SDS011;31493;49.058;12.190;2023-12-20T06:51:51;6.97;;;1.80;;
23676;SDS011;31493;49.058;12.190;2023-12-20T06:54:18;1.40;;;1.30;;
23676;SDS011;31493;49.058;12.190;2023-12-20T06:56:47;1.65;;;1.30;;
23676;SDS011;31493;49.058;12.190;2023-12-20T06:59:14;1.70;;;1.40;;
23676;SDS011;31493;49.058;12.190;2023-12-20T07:01:41;1.92;;;1.50;;
23676;SDS011;31493;49.058;12.190;2023-12-20T07:04:08;1.13;;;1.02;;
23676;SDS011;31493;49.058;12.190;2023-12-20T07:06:36;1.63;;;1.13;;
23676;SDS011;31493;49.058;12.190;2023-12-20T07:09:03;1.17;;;1.00;;
23676;SDS011;31493;49.058;12.190;2023-12-20T07:11:30;1.48;;;1.30;;
23676;SDS011;31493;49.058;12.190;2023-12-20T07:13:59;1.33;;;1.17;;
23676;SDS011;31493;49.058;12.190;2023-12-20T07:16:26;2.00;;;1.48;;
23676;SDS011;31493;49.058;12.190;2023-12-20T07:18:53;2.00;;;1.50;;
23676;SDS011;31493;49.058;12.190;2023-12-20T07:21:21;1.50;;;1.13;;
23676;SDS011;31493;49.058;12.190;2023-12-20T07:23:48;1.83;;;1.40;;
23676;SDS011;31493;49.058;12.190;2023-12-20T07:26:15;1.80;;;1.40;;
23676;SDS011;31493;49.058;12.190;2023-12-20T07:28:43;2.10;;;1.53;;
23676;SDS011;31493;49.058;12.190;2023-12-20T07:31:12;2.42;;;1.50;;
23676;SDS011;31493;49.058;12.190;2023-12-20T07:33:41;1.60;;;1.50;;
23676;SDS011;31493;49.058;12.190;2023-12-20T07:36:08;1.83;;;1.50;;
23676;SDS011;31493;49.058;12.190;2023-12-20T07:38:35;1.85;;;1.40;;
23676;SDS011;31493;49.058;12.190;2023-12-20T07:41:03;1.40;;;1.30;;
23676;SDS011;31493;49.058;12.190;2023-12-20T07:43:30;1.95;;;1.35;;
23676;SDS011;31493;49.058;12.190;2023-12-20T07:45:57;1.90;;;1.65;;
23676;SDS011;31493;49.058;12.190;2023-12-20T07:48:31;1.33;;;1.20;;
23676;SDS011;31493;49.058;12.190;2023-12-20T07:50:58;1.67;;;1.40;;
23676;SDS011;31493;49.058;12.190;2023-12-20T07:53:25;3.42;;;1.60;;
23676;SDS011;31493;49.058;12.190;2023-12-20T07:55:52;2.08;;;1.67;;
23676;SDS011;31493;49.058;12.190;2023-12-20T07:58:19;1.85;;;1.27;;
23676;SDS011;31493;49.058;12.190;2023-12-20T08:00:47;1.92;;;1.58;;
23676;SDS011;31493;49.058;12.190;2023-12-20T08:03:14;1.70;;;1.30;;
23676;SDS011;31493;49.058;12.190;2023-12-20T08:05:43;2.92;;;1.30;;
23676;SDS011;31493;49.058;12.190;2023-12-20T08:08:10;3.38;;;1.27;;
23676;SDS011;31493;49.058;12.190;2023-12-20T08:10:37;1.60;;;1.23;;
23676;SDS011;31493;49.058;12.190;2023-12-20T08:13:04;1.67;;;1.35;;
23676;SDS011;31493;49.058;12.190;2023-12-20T08:15:31;1.83;;;1.30;;
23676;SDS011;31493;49.058;12.190;2023-12-20T08:17:58;1.70;;;1.02;;
23676;SDS011;31493;49.058;12.190;2023-12-20T08:20:25;3.15;;;1.38;;
23676;SDS011;31493;49.058;12.190;2023-12-20T08:22:53;2.30;;;1.40;;
23676;SDS011;31493;49.058;12.190;2023-12-20T08:25:20;1.30;;;1.05;;
23676;SDS011;31493;49.058;12.190;2023-12-20T08:27:47;1.25;;;1.15;;
23676;SDS011;31493;49.058;12.190;2023-12-20T08:30:14;1.20;;;1.10;;
23676;SDS011;31493;49.058;12.190;2023-12-20T08:32:42;1.20;;;1.10;;
23676;SDS011;31493;49.058;12.190;2023-12-20T08:35:09;2.10;;;1.10;;
23676;SDS011;31493;49.058;12.190;2023-12-20T08:37:36;1.75;;;0.88;;
23676;SDS011;31493;49.058;12.190;2023-12-20T08:40:05;2.80;;;1.30;;
23676;SDS011;31493;49.058;12.190;2023-12-20T08:42:33;1.50;;;1.00;;
23676;SDS011;31493;49.058;12.190;2023-12-20T08:45:00;1.70;;;1.50;;
23676;SDS011;31493;49.058;12.190;2023-12-20T08:47:29;1.58;;;1.30;;
23676;SDS011;31493;49.058;12.190;2023-12-20T08:49:56;3.70;;;1.60;;
23676;SDS011;31493;49.058;12.190;2023-12-20T08:52:25;6.93;;;1.58;;
23676;SDS011;31493;49.058;12.190;2023-12-20T08:54:53;4.38;;;1.75;;
23676;SDS011;31493;49.058;12.190;2023-12-20T08:57:21;3.25;;;1.60;;
23676;SDS011;31493;49.058;12.190;2023-12-20T08:59:49;1.77;;;1.55;;
23676;SDS011;31493;49.058;12.190;2023-12-20T09:02:16;3.47;;;1.75;;
23676;SDS011;31493;49.058;12.190;2023-12-20T09:04:44;2.22;;;1.77;;
23676;SDS011;31493;49.058;12.190;2023-12-20T09:07:20;2.70;;;2.00;;
23676;SDS011;31493;49.058;12.190;2023-12-20T09:09:47;3.47;;;2.03;;
23676;SDS011;31493;49.058;12.190;2023-12-20T09:12:15;2.40;;;1.83;;
23676;SDS011;31493;49.058;12.190;2023-12-20T09:14:43;5.75;;;2.10;;
23676;SDS011;31493;49.058;12.190;2023-12-20T09:17:10;1.73;;;1.63;;
23676;SDS011;31493;49.058;12.190;2023-12-20T09:19:37;2.40;;;1.90;;
23676;SDS011;31493;49.058;12.190;2023-12-20T09:22:04;3.45;;;1.88;;
23676;SDS011;31493;49.058;12.190;2023-12-20T09:24:31;2.15;;;1.90;;
23676;SDS011;31493;49.058;12.190;2023-12-20T09:26:58;4.30;;;1.77;;
23676;SDS011;31493;49.058;12.190;2023-12-20T09:29:25;2.80;;;1.98;;
23676;SDS011;31493;49.058;12.190;2023-12-20T09:31:54;3.97;;;1.92;;
23676;SDS011;31493;49.058;12.190;2023-12-20T09:34:21;3.50;;;1.90;;
23676;SDS011;31493;49.058;12.190;2023-12-20T09:36:48;3.55;;;1.83;;
23676;SDS011;31493;49.058;12.190;2023-12-20T09:39:15;3.03;;;2.15;;
23676;SDS011;31493;49.058;12.190;2023-12-20T09:41:45;3.55;;;2.05;;
23676;SDS011;31493;49.058;12.190;2023-12-20T09:44:16;3.92;;;2.20;;
23676;SDS011;31493;49.058;12.190;2023-12-20T09:46:45;3.22;;;2.58;;
23676;SDS011;31493;49.058;12.190;2023-12-20T09:49:17;3.15;;;2.40;;
23676;SDS011;31493;49.058;12.190;2023-12-20T09:51:45;3.92;;;2.75;;
23676;SDS011;31493;49.058;12.190;2023-12-20T09:54:13;4.38;;;2.22;;
23676;SDS011;31493;49.058;12.190;2023-12-20T09:56:40;4.72;;;3.70;;
23676;SDS011;31493;49.058;12.190;2023-12-20T09:59:07;3.60;;;2.90;;
23676;SDS011;31493;49.058;12.190;2023-12-20T10:01:35;5.25;;;2.90;;
23676;SDS011;31493;49.058;12.190;2023-12-20T10:04:03;4.10;;;3.08;;
23676;SDS011;31493;49.058;12.190;2023-12-20T10:06:35;5.10;;;3.58;;
23676;SDS011;31493;49.058;12.190;2023-12-20T10:09:03;5.57;;;3.30;;
23676;SDS011;31493;49.058;12.190;2023-12-20T10:11:31;3.80;;;3.40;;
23676;SDS011;31493;49.058;12.190;2023-12-20T10:13:58;4.60;;;3.47;;
23676;SDS011;31493;49.058;12.190;2023-12-20T10:16:26;6.45;;;4.00;;
23676;SDS011;31493;49.058;12.190;2023-12-20T10:18:53;4.47;;;3.90;;
23676;SDS011;31493;49.058;12.190;2023-12-20T10:21:20;5.72;;;4.15;;
23676;SDS011;31493;49.058;12.190;2023-12-20T10:23:49;5.28;;;4.05;;
23676;SDS011;31493;49.058;12.190;2023-12-20T10:26:20;4.80;;;4.07;;
23676;SDS011;31493;49.058;12.190;2023-12-20T10:28:49;6.68;;;4.35;;
23676;SDS011;31493;49.058;12.190;2023-12-20T10:31:26;5.40;;;3.90;;
23676;SDS011;31493;49.058;12.190;2023-12-20T10:33:55;5.10;;;3.92;;
23676;SDS011;31493;49.058;12.190;2023-12-20T10:36:22;4.63;;;3.95;;
23676;SDS011;31493;49.058;12.190;2023-12-20T10:38:53;5.18;;;3.35;;
23676;SDS011;31493;49.058;12.190;2023-12-20T10:41:24;3.65;;;3.33;;
23676;SDS011;31493;49.058;12.190;2023-12-20T10:43:53;2.80;;;2.50;;
23676;SDS011;31493;49.058;12.190;2023-12-20T10:46:22;3.22;;;2.60;;
23676;SDS011;31493;49.058;12.190;2023-12-20T10:48:52;2.63;;;2.33;;
23676;SDS011;31493;49.058;12.190;2023-12-20T10:51:20;4.93;;;2.83;;
23676;SDS011;31493;49.058;12.190;2023-12-20T10:53:48;2.50;;;2.30;;
23676;SDS011;31493;49.058;12.190;2023-12-20T10:56:17;4.57;;;2.78;;
23676;SDS011;31493;49.058;12.190;2023-12-20T10:58:45;2.83;;;2.33;;
23676;SDS011;31493;49.058;12.190;2023-12-20T11:01:12;2.38;;;1.90;;
23676;SDS011;31493;49.058;12.190;2023-12-20T11:03:42;4.25;;;2.35;;
23676;SDS011;31493;49.058;12.190;2023-12-20T11:06:15;3.35;;;2.20;;
23676;SDS011;31493;49.058;12.190;2023-12-20T11:08:52;4.38;;;2.53;;
23676;SDS011;31493;49.058;12.190;2023-12-20T11:11:35;3.78;;;2.20;;
23676;SDS011;31493;49.058;12.190;2023-12-20T11:14:08;2.45;;;2.03;;
23676;SDS011;31493;49.058;12.190;2023-12-20T11:16:45;3.00;;;1.90;;
23676;SDS011;31493;49.058;12.190;2023-12-20T11:19:12;2.92;;;1.83;;
23676;SDS011;31493;49.058;12.190;2023-12-20T11:21:40;2.20;;;1.80;;
23676;SDS011;31493;49.058;12.190;2023-12-20T11:24:07;3.25;;;1.85;;
23676;SDS011;31493;49.058;12.190;2023-12-20T11:26:36;3.20;;;1.90;;
23676;SDS011;31493;49.058;12.190;2023-12-20T11:31:59;4.18;;;1.90;;
23676;SDS011;31493;49.058;12.190;2023-12-20T11:34:26;5.43;;;1.98;;
23676;SDS011;31493;49.058;12.190;2023-12-20T11:36:57;4.85;;;2.00;;
23676;SDS011;31493;49.058;12.190;2023-12-20T11:39:25;2.85;;;1.67;;
23676;SDS011;31493;49.058;12.190;2023-12-20T11:41:55;3.33;;;1.50;;
23676;SDS011;31493;49.058;12.190;2023-12-20T11:44:25;4.70;;;2.00;;
23676;SDS011;31493;49.058;12.190;2023-12-20T11:46:53;5.65;;;1.52;;
23676;SDS011;31493;49.058;12.190;2023-12-20T11:51:51;3.45;;;1.40;;
23676;SDS011;31493;49.058;12.190;2023-12-20T11:54:18;2.95;;;1.83;;
23676;SDS011;31493;49.058;12.190;2023-12-20T11:56:46;8.30;;;2.00;;
23676;SDS011;31493;49.058;12.190;2023-12-20T11:59:15;5.82;;;1.60;;
23676;SDS011;31493;49.058;12.190;2023-12-20T12:01:47;5.15;;;1.52;;
23676;SDS011;31493;49.058;12.190;2023-12-20T12:04:15;9.68;;;1.65;;
23676;SDS011;31493;49.058;12.190;2023-12-20T12:06:43;6.43;;;1.50;;
23676;SDS011;31493;49.058;12.190;2023-12-20T12:09:10;6.05;;;2.25;;
23676;SDS011;31493;49.058;12.190;2023-12-20T12:11:37;4.55;;;1.40;;
23676;SDS011;31493;49.058;12.190;2023-12-20T12:14:04;6.50;;;1.70;;
23676;SDS011;31493;49.058;12.190;2023-12-20T12:16:33;10.10;;;3.67;;
23676;SDS011;31493;49.058;12.190;2023-12-20T12:19:00;7.95;;;2.05;;
23676;SDS011;31493;49.058;12.190;2023-12-20T12:21:27;5.72;;;1.20;;
23676;SDS011;31493;49.058;12.190;2023-12-20T12:23:54;5.80;;;1.38;;
23676;SDS011;31493;49.058;12.190;2023-12-20T12:26:33;4.95;;;1.40;;
23676;SDS011;31493;49.058;12.190;2023-12-20T12:29:00;7.72;;;2.42;;
23676;SDS011;31493;49.058;12.190;2023-12-20T12:31:27;9.63;;;2.20;;
23676;SDS011;31493;49.058;12.190;2023-12-20T12:33:59;3.30;;;1.50;;
23676;SDS011;31493;49.058;12.190;2023-12-20T12:36:26;9.43;;;1.60;;
23676;SDS011;31493;49.058;12.190;2023-12-20T12:38:56;3.60;;;1.33;;
23676;SDS011;31493;49.058;12.190;2023-12-20T12:41:23;4.63;;;1.17;;
23676;SDS011;31493;49.058;12.190;2023-12-20T12:43:50;5.72;;;1.48;;
23676;SDS011;31493;49.058;12.190;2023-12-20T12:46:17;4.45;;;1.45;;
23676;SDS011;31493;49.058;12.190;2023-12-20T12:48:44;3.40;;;1.23;;
23676;SDS011;31493;49.058;12.190;2023-12-20T12:51:13;4.22;;;1.55;;
23676;SDS011;31493;49.058;12.190;2023-12-20T12:53:40;6.82;;;1.90;;
23676;SDS011;31493;49.058;12.190;2023-12-20T12:56:07;7.85;;;1.65;;
23676;SDS011;31493;49.058;12.190;2023-12-20T12:58:34;5.05;;;1.40;;
23676;SDS011;31493;49.058;12.190;2023-12-20T13:01:01;4.78;;;1.15;;
23676;SDS011;31493;49.058;12.190;2023-12-20T13:03:29;5.88;;;1.50;;
23676;SDS011;31493;49.058;12.190;2023-12-20T13:05:56;3.22;;;1.17;;
23676;SDS011;31493;49.058;12.190;2023-12-20T13:08:24;8.10;;;1.63;;
23676;SDS011;31493;49.058;12.190;2023-12-20T13:10:51;6.40;;;1.40;;
23676;SDS011;31493;49.058;12.190;2023-12-20T13:13:18;5.65;;;1.42;;
23676;SDS011;31493;49.058;12.190;2023-12-20T13:15:45;6.78;;;1.35;;
23676;SDS011;31493;49.058;12.190;2023-12-20T13:18:16;5.82;;;1.40;;
23676;SDS011;31493;49.058;12.190;2023-12-20T13:20:43;4.50;;;1.33;;
23676;SDS011;31493;49.058;12.190;2023-12-20T13:23:10;3.70;;;1.38;;
23676;SDS011;31493;49.058;12.190;2023-12-20T13:25:39;4.32;;;1.25;;
23676;SDS011;31493;49.058;12.190;2023-12-20T13:28:06;2.28;;;1.25;;
23676;SDS011;31493;49.058;12.190;2023-12-20T13:30:33;3.08;;;1.10;;
23676;SDS011;31493;49.058;12.190;2023-12-20T13:33:01;5.47;;;1.83;;
23676;SDS011;31493;49.058;12.190;2023-12-20T13:35:28;4.63;;;1.40;;
23676;SDS011;31493;49.058;12.190;2023-12-20T13:37:55;6.47;;;1.60;;
23676;SDS011;31493;49.058;12.190;2023-12-20T13:40:23;5.95;;;1.50;;
23676;SDS011;31493;49.058;12.190;2023-12-20T13:42:51;6.25;;;1.58;;
23676;SDS011;31493;49.058;12.190;2023-12-20T13:45:18;3.25;;;1.27;;
23676;SDS011;31493;49.058;12.190;2023-12-20T13:47:45;4.60;;;1.45;;
23676;SDS011;31493;49.058;12.190;2023-12-20T13:50:12;5.88;;;1.60;;
23676;SDS011;31493;49.058;12.190;2023-12-20T13:52:39;3.60;;;1.50;;
23676;SDS011;31493;49.058;12.190;2023-12-20T13:55:07;6.32;;;1.50;;
23676;SDS011;31493;49.058;12.190;2023-12-20T13:57:34;3.80;;;1.55;;
23676;SDS011;31493;49.058;12.190;2023-12-20T14:00:05;5.30;;;1.80;;
23676;SDS011;31493;49.058;12.190;2023-12-20T14:02:38;4.53;;;1.80;;
23676;SDS011;31493;49.058;12.190;2023-12-20T14:05:05;5.18;;;1.60;;
23676;SDS011;31493;49.058;12.190;2023-12-20T14:07:32;3.70;;;1.20;;
23676;SDS011;31493;49.058;12.190;2023-12-20T14:09:59;4.75;;;1.70;;
23676;SDS011;31493;49.058;12.190;2023-12-20T14:12:27;6.57;;;1.98;;
23676;SDS011;31493;49.058;12.190;2023-12-20T14:14:53;6.03;;;1.58;;
23676;SDS011;31493;49.058;12.190;2023-12-20T14:17:22;2.17;;;1.27;;
23676;SDS011;31493;49.058;12.190;2023-12-20T14:19:49;5.68;;;1.75;;
23676;SDS011;31493;49.058;12.190;2023-12-20T14:22:17;9.52;;;1.85;;
23676;SDS011;31493;49.058;12.190;2023-12-20T14:24:44;4.75;;;1.45;;
23676;SDS011;31493;49.058;12.190;2023-12-20T14:27:11;4.85;;;1.85;;
23676;SDS011;31493;49.058;12.190;2023-12-20T14:29:38;3.63;;;1.83;;
23676;SDS011;31493;49.058;12.190;2023-12-20T14:32:06;6.40;;;1.48;;
23676;SDS011;31493;49.058;12.190;2023-12-20T14:34:34;7.28;;;2.08;;
23676;SDS011;31493;49.058;12.190;2023-12-20T14:37:02;7.47;;;2.00;;